CheckWX is a tool to help pilots better visualize weather data.  It is not intended as a substitute for an official pre-flight weather briefing.

10:17:58 UTC

FBKE METAR
Kasane Airport
Kasane, Botswana
Current

18 mins ago

FBKE 241000Z 08010KT 040V120 CAVOK 25/07 Q1024
Observed
May-24 @ 10:00 UTC
Wind
  • 080° at 10 KTS
Visibility
10,000+ meters
Flight Rules
VFR
Cloud Levels
  • Clear skies
Temperature
25°C / 77°F
Dewpoint
C / 45°F
Humidity
32%
Altimeter
30.24" Hg
Pressure
1023.92 hPa
Previous

1 hour ago

FBKE 240900Z 09011KT 040V120 CAVOK 24/07 Q1025
Observed
May-24 @ 09:00 UTC
Wind
  • 090° at 11 KTS
Visibility
10,000+ meters
Flight Rules
VFR
Cloud Levels
  • Clear skies
Temperature
24°C / 75°F
Dewpoint
C / 45°F
Humidity
34%
Altimeter
30.27" Hg
Pressure
1024.92 hPa
Previous

2 hours ago

FBKE 240800Z 09014KT CAVOK 22/18 Q1025
Observed
May-24 @ 08:00 UTC
Wind
  • 090° at 14 KTS
Visibility
10,000+ meters
Flight Rules
VFR
Cloud Levels
  • Clear skies
Temperature
22°C / 72°F
Dewpoint
18°C / 64°F
Humidity
78%
Altimeter
30.27" Hg
Pressure
1024.92 hPa